createdAt,value
2023-04-16T00:02:30.106Z,13.42
2023-04-16T00:05:16.784Z,13.45
2023-04-16T00:08:05.038Z,13.69
2023-04-16T00:10:51.957Z,13.62
2023-04-16T00:13:38.573Z,13.47
2023-04-16T00:16:25.520Z,13.48
2023-04-16T00:19:12.370Z,13.50
2023-04-16T00:21:59.276Z,13.38
2023-04-16T00:24:47.361Z,13.39
2023-04-16T00:27:34.175Z,13.44
2023-04-16T00:30:21.112Z,13.41
2023-04-16T00:33:09.422Z,13.31
2023-04-16T00:35:56.163Z,13.39
2023-04-16T00:38:42.932Z,13.38
2023-04-16T00:41:31.218Z,13.38
2023-04-16T00:44:17.862Z,13.48
2023-04-16T00:47:05.280Z,13.38
2023-04-16T00:49:56.404Z,13.11
2023-04-16T00:52:44.226Z,13.32
2023-04-16T00:55:30.985Z,13.41
2023-04-16T00:58:19.595Z,13.41
2023-04-16T01:01:06.855Z,13.35
2023-04-16T01:03:53.426Z,13.31
2023-04-16T01:06:40.041Z,13.46
2023-04-16T01:09:26.840Z,13.41
2023-04-16T01:12:13.868Z,13.50
2023-04-16T01:15:01.727Z,13.25
2023-04-16T01:17:48.891Z,13.40
2023-04-16T01:20:37.666Z,13.24
2023-04-16T01:23:24.477Z,13.33
2023-04-16T01:26:11.181Z,13.27
2023-04-16T01:28:57.974Z,13.19
2023-04-16T01:31:46.740Z,13.16
2023-04-16T01:34:41.359Z,13.26
2023-04-16T01:37:32.041Z,13.28
2023-04-16T01:40:18.698Z,13.32
2023-04-16T01:43:05.849Z,13.27
2023-04-16T01:45:53.626Z,13.26
2023-04-16T01:48:40.582Z,13.29
2023-04-16T01:51:27.438Z,13.19
2023-04-16T01:54:15.475Z,13.25
2023-04-16T01:57:03.228Z,13.20
2023-04-16T01:59:49.803Z,13.13
2023-04-16T02:02:37.461Z,13.08
2023-04-16T02:05:24.484Z,13.08
2023-04-16T02:08:11.357Z,13.03
2023-04-16T02:11:01.074Z,13.13
2023-04-16T02:13:47.786Z,13.26
2023-04-16T02:16:35.910Z,13.14
2023-04-16T02:19:31.379Z,13.10
2023-04-16T02:22:18.291Z,13.22
2023-04-16T02:25:05.664Z,13.11
2023-04-16T02:27:53.838Z,13.07
2023-04-16T02:30:50.204Z,12.79
2023-04-16T02:33:38.452Z,12.89
2023-04-16T02:36:25.699Z,12.88
2023-04-16T02:39:15.400Z,12.85
2023-04-16T02:42:02.764Z,12.90
2023-04-16T02:44:50.938Z,12.71
2023-04-16T02:47:37.793Z,12.74
2023-04-16T02:50:24.490Z,12.66
2023-04-16T02:53:11.662Z,12.69
2023-04-16T02:55:58.559Z,12.70
2023-04-16T02:58:45.123Z,12.76
2023-04-16T03:01:33.305Z,12.51
2023-04-16T03:04:20.104Z,12.52
2023-04-16T03:07:06.857Z,12.52
2023-04-16T03:09:53.549Z,12.46
2023-04-16T03:12:40.672Z,12.68
2023-04-16T03:15:27.755Z,12.54
2023-04-16T03:18:15.873Z,12.48
2023-04-16T03:21:02.553Z,12.67
2023-04-16T03:23:49.366Z,12.64
2023-04-16T03:26:36.159Z,12.72
2023-04-16T03:29:22.808Z,12.51
2023-04-16T03:32:09.680Z,12.38
2023-04-16T03:34:58.539Z,12.63
2023-04-16T03:37:45.208Z,12.52
2023-04-16T03:40:32.438Z,12.62
2023-04-16T03:43:20.779Z,12.64
2023-04-16T03:46:07.944Z,12.70
2023-04-16T03:48:54.673Z,12.65
2023-04-16T03:51:43.356Z,12.65
2023-04-16T03:54:30.783Z,12.54
2023-04-16T03:57:28.187Z,12.64
2023-04-16T04:00:19.861Z,12.54
2023-04-16T04:03:29.677Z,12.50
2023-04-16T04:06:16.658Z,12.44
2023-04-16T04:09:05.131Z,12.57
2023-04-16T04:11:52.681Z,12.50
2023-04-16T04:14:40.136Z,12.43
2023-04-16T04:17:27.058Z,12.44
2023-04-16T04:20:13.889Z,12.42
2023-04-16T04:23:04.020Z,12.50
2023-04-16T04:25:52.145Z,12.42
2023-04-16T04:28:38.852Z,12.47
2023-04-16T04:31:25.705Z,12.60
2023-04-16T04:34:12.353Z,12.53
2023-04-16T04:36:59.099Z,12.68
2023-04-16T04:39:46.706Z,12.54
2023-04-16T04:42:34.480Z,12.54
2023-04-16T04:45:21.282Z,12.52
2023-04-16T04:48:08.320Z,12.61
2023-04-16T04:50:54.996Z,12.52
2023-04-16T04:53:41.754Z,12.53
2023-04-16T04:56:28.596Z,12.56
2023-04-16T04:59:16.656Z,12.45
2023-04-16T05:02:04.423Z,12.56
2023-04-16T05:04:51.219Z,12.62
2023-04-16T05:07:37.892Z,12.55
2023-04-16T05:10:24.581Z,12.55
2023-04-16T05:13:11.302Z,12.59
2023-04-16T05:15:59.805Z,12.55
2023-04-16T05:18:46.249Z,12.75
2023-04-16T05:21:34.858Z,12.74
2023-04-16T05:24:24.604Z,12.80
2023-04-16T05:27:14.088Z,12.82
2023-04-16T05:30:04.212Z,12.67
2023-04-16T05:32:52.940Z,12.68
2023-04-16T05:35:39.528Z,12.40
2023-04-16T05:38:26.397Z,12.43
2023-04-16T05:41:13.190Z,12.57
2023-04-16T05:44:05.129Z,12.52
2023-04-16T05:46:52.696Z,12.66
2023-04-16T05:49:40.826Z,12.64
2023-04-16T05:52:27.647Z,12.69
2023-04-16T05:55:14.265Z,12.69
2023-04-16T05:58:00.973Z,12.73
2023-04-16T06:00:50.435Z,12.62
2023-04-16T06:03:37.414Z,12.60
2023-04-16T06:06:27.460Z,12.71
2023-04-16T06:09:14.123Z,12.72
2023-04-16T06:12:01.168Z,12.63
2023-04-16T06:14:47.767Z,12.67
2023-04-16T06:17:34.571Z,12.77
2023-04-16T06:20:21.237Z,12.63
2023-04-16T06:23:09.567Z,12.72
2023-04-16T06:25:56.678Z,12.73
2023-04-16T06:28:43.369Z,12.89
2023-04-16T06:31:31.050Z,12.83
2023-04-16T06:34:18.062Z,12.85
2023-04-16T06:37:04.913Z,12.99
2023-04-16T06:39:53.111Z,12.97
2023-04-16T06:42:39.917Z,12.91
2023-04-16T06:45:26.795Z,12.93
2023-04-16T06:48:13.616Z,12.95
2023-04-16T06:51:01.485Z,12.97
2023-04-16T06:53:48.099Z,13.02
2023-04-16T06:56:37.531Z,12.86
2023-04-16T06:59:24.308Z,12.96
2023-04-16T07:02:11.790Z,12.93
2023-04-16T07:04:58.568Z,12.91
2023-04-16T07:07:45.302Z,12.92
2023-04-16T07:10:32.533Z,12.99
2023-04-16T07:13:20.551Z,13.07
2023-04-16T07:16:07.508Z,13.12
2023-04-16T07:18:54.180Z,13.23
2023-04-16T07:21:42.065Z,12.50
2023-04-16T07:24:28.601Z,13.09
2023-04-16T07:27:15.498Z,12.96
2023-04-16T07:30:09.682Z,13.10
2023-04-16T07:32:56.682Z,13.04
2023-04-16T07:35:43.321Z,13.00
2023-04-16T07:38:30.722Z,12.89
2023-04-16T07:41:17.350Z,12.99
2023-04-16T07:44:04.791Z,12.99
2023-04-16T07:46:52.737Z,13.19
2023-04-16T07:49:39.718Z,13.05
2023-04-16T07:52:26.823Z,13.05
2023-04-16T07:55:13.562Z,13.01
2023-04-16T07:58:00.570Z,13.01
2023-04-16T08:00:48.125Z,13.09
2023-04-16T08:03:37.266Z,13.24
2023-04-16T08:06:23.863Z,13.26
2023-04-16T08:09:10.938Z,13.39
2023-04-16T08:11:57.645Z,13.57
2023-04-16T08:14:45.127Z,13.32
2023-04-16T08:17:37.081Z,13.55
2023-04-16T08:20:29.002Z,13.50
2023-04-16T08:23:15.934Z,13.62
2023-04-16T08:26:02.688Z,13.64
2023-04-16T08:28:49.139Z,13.62
2023-04-16T08:31:36.094Z,13.53
2023-04-16T08:34:22.839Z,13.56
2023-04-16T08:37:11.040Z,13.37
2023-04-16T08:39:57.658Z,13.31
2023-04-16T08:42:49.185Z,13.38
2023-04-16T08:45:36.334Z,13.19
2023-04-16T08:48:24.126Z,13.65
2023-04-16T08:51:12.181Z,13.88
2023-04-16T08:54:03.924Z,13.69
2023-04-16T08:56:52.271Z,13.90
2023-04-16T08:59:41.279Z,13.95
2023-04-16T09:02:28.385Z,13.98
2023-04-16T09:05:18.040Z,14.14
2023-04-16T09:08:06.263Z,14.28
2023-04-16T09:10:54.743Z,14.31
2023-04-16T09:13:41.501Z,14.21
2023-04-16T09:16:31.347Z,14.16
2023-04-16T09:19:18.048Z,14.06
2023-04-16T09:22:05.009Z,14.08
2023-04-16T09:24:51.712Z,14.29
2023-04-16T09:27:40.374Z,14.08
2023-04-16T09:30:28.048Z,14.31
2023-04-16T09:33:17.516Z,14.07
2023-04-16T09:36:04.345Z,14.55
2023-04-16T09:38:52.283Z,14.55
2023-04-16T09:41:40.070Z,14.54
2023-04-16T09:44:36.299Z,14.69
2023-04-16T09:47:23.956Z,15.24
2023-04-16T09:50:17.725Z,15.15
2023-04-16T09:53:04.925Z,15.07
2023-04-16T09:55:51.768Z,14.91
2023-04-16T09:58:39.164Z,14.88
2023-04-16T10:01:27.573Z,14.85
2023-04-16T10:04:14.370Z,14.60
2023-04-16T10:07:05.584Z,14.90
2023-04-16T10:09:52.690Z,14.75
2023-04-16T10:12:39.617Z,15.04
2023-04-16T10:15:26.771Z,14.89
2023-04-16T10:18:15.897Z,15.27
2023-04-16T10:21:03.138Z,15.70
2023-04-16T10:23:49.850Z,15.46
2023-04-16T10:26:37.831Z,15.52
2023-04-16T10:29:26.498Z,15.45
2023-04-16T10:32:13.729Z,15.34
2023-04-16T10:35:01.876Z,15.15
2023-04-16T10:37:48.707Z,14.90
2023-04-16T10:40:36.467Z,14.81
2023-04-16T10:43:23.246Z,14.59
2023-04-16T10:46:24.144Z,14.57
2023-04-16T10:49:15.148Z,14.76
2023-04-16T10:52:10.664Z,14.73
2023-04-16T10:55:01.881Z,14.50
2023-04-16T10:57:53.650Z,14.53
2023-04-16T11:00:51.989Z,14.67
2023-04-16T11:03:44.873Z,14.75
2023-04-16T11:06:32.288Z,14.84
2023-04-16T11:09:49.796Z,14.74
2023-04-16T11:12:38.197Z,14.63
2023-04-16T11:15:31.261Z,14.64
2023-04-16T11:18:20.664Z,14.58
2023-04-16T11:21:10.322Z,14.57
2023-04-16T11:23:58.968Z,14.35
2023-04-16T11:26:46.861Z,14.27
2023-04-16T11:29:33.809Z,14.37
2023-04-16T11:32:23.013Z,14.26
2023-04-16T11:35:15.414Z,14.24
2023-04-16T11:38:04.243Z,13.97
2023-04-16T11:40:51.660Z,14.13
2023-04-16T11:43:39.531Z,14.12
2023-04-16T11:46:39.434Z,14.13
2023-04-16T11:49:29.729Z,14.23
2023-04-16T11:52:28.344Z,14.24
2023-04-16T11:55:15.564Z,14.27
2023-04-16T11:58:13.449Z,14.33
2023-04-16T12:01:02.913Z,14.29
2023-04-16T12:03:49.970Z,14.40
2023-04-16T12:06:36.951Z,14.21
2023-04-16T12:09:24.318Z,13.93
2023-04-16T12:12:27.564Z,14.11
2023-04-16T12:15:14.852Z,14.27
2023-04-16T12:18:09.676Z,14.29
2023-04-16T12:20:56.525Z,14.29
2023-04-16T12:23:43.287Z,14.48
2023-04-16T12:26:38.486Z,14.50
2023-04-16T12:29:27.612Z,14.50
2023-04-16T12:32:23.610Z,14.59
2023-04-16T12:35:12.085Z,14.69
2023-04-16T12:37:58.514Z,14.70
2023-04-16T12:40:45.998Z,14.61
2023-04-16T12:43:32.734Z,14.80
2023-04-16T12:46:19.486Z,14.85
2023-04-16T12:49:06.859Z,14.69
2023-04-16T12:51:55.088Z,14.87
2023-04-16T12:54:41.918Z,14.93
2023-04-16T12:57:29.575Z,15.05
2023-04-16T13:00:17.454Z,14.94
2023-04-16T13:03:04.124Z,15.00
2023-04-16T13:05:50.863Z,14.94
2023-04-16T13:08:39.246Z,14.96
2023-04-16T13:11:26.056Z,14.91
2023-04-16T13:14:12.496Z,15.11
2023-04-16T13:16:59.408Z,15.16
2023-04-16T13:19:46.156Z,15.32
2023-04-16T13:22:32.900Z,15.34
2023-04-16T13:25:21.159Z,15.29
2023-04-16T13:28:07.785Z,15.26
2023-04-16T13:30:55.577Z,15.06
2023-04-16T13:33:42.490Z,14.74
2023-04-16T13:36:30.193Z,14.78
2023-04-16T13:39:16.592Z,14.68
2023-04-16T13:42:04.838Z,14.54
2023-04-16T13:44:54.270Z,14.61
2023-04-16T13:47:42.595Z,14.36
2023-04-16T13:50:29.357Z,14.46
2023-04-16T13:53:15.910Z,14.21
2023-04-16T13:56:04.090Z,14.06
2023-04-16T13:58:52.336Z,14.07
2023-04-16T14:01:39.125Z,14.22
2023-04-16T14:04:26.180Z,13.95
2023-04-16T14:07:13.051Z,13.91
2023-04-16T14:09:59.765Z,14.03
2023-04-16T14:12:46.900Z,14.08
2023-04-16T14:15:34.876Z,14.00
2023-04-16T14:18:21.872Z,13.94
2023-04-16T14:21:08.442Z,13.98
2023-04-16T14:23:55.291Z,14.15
2023-04-16T14:26:44.164Z,14.03
2023-04-16T14:29:31.840Z,14.16
2023-04-16T14:32:20.062Z,14.33
2023-04-16T14:35:08.397Z,14.20
2023-04-16T14:37:55.438Z,14.28
2023-04-16T14:40:42.328Z,14.32
2023-04-16T14:43:29.125Z,14.19
2023-04-16T14:46:17.776Z,14.43
2023-04-16T14:49:05.897Z,14.39
2023-04-16T14:51:52.526Z,14.19
2023-04-16T14:54:39.350Z,14.27
2023-04-16T14:57:26.817Z,14.30
2023-04-16T15:00:17.302Z,14.19
2023-04-16T15:03:03.885Z,14.19
2023-04-16T15:05:55.766Z,14.01
2023-04-16T15:08:42.720Z,13.99
2023-04-16T15:11:30.259Z,14.08
2023-04-16T15:14:16.844Z,14.07
2023-04-16T15:17:04.064Z,14.04
2023-04-16T15:19:52.172Z,14.01
2023-04-16T15:22:40.890Z,13.97
2023-04-16T15:25:27.567Z,13.70
2023-04-16T15:28:16.775Z,13.87
2023-04-16T15:31:03.701Z,13.92
2023-04-16T15:33:50.600Z,13.61
2023-04-16T15:36:37.090Z,13.59
2023-04-16T15:39:25.639Z,13.58
2023-04-16T15:42:13.263Z,13.38
2023-04-16T15:44:59.783Z,13.27
2023-04-16T15:47:51.091Z,13.38
2023-04-16T15:50:37.784Z,13.27
2023-04-16T15:53:24.331Z,13.30
2023-04-16T15:56:12.600Z,13.18
2023-04-16T15:58:59.014Z,13.04
2023-04-16T16:01:45.991Z,13.07
2023-04-16T16:04:32.589Z,13.19
2023-04-16T16:07:20.138Z,13.05
2023-04-16T16:10:07.912Z,12.91
2023-04-16T16:12:57.250Z,12.65
2023-04-16T16:15:44.236Z,12.72
2023-04-16T16:18:33.003Z,12.60
2023-04-16T16:21:20.235Z,12.80
2023-04-16T16:24:07.809Z,13.06
2023-04-16T16:26:54.439Z,13.17
2023-04-16T16:29:42.741Z,13.02
2023-04-16T16:32:29.378Z,13.29
2023-04-16T16:35:16.074Z,13.32
2023-04-16T16:38:03.068Z,13.30
2023-04-16T16:40:50.077Z,13.03
2023-04-16T16:43:37.113Z,13.18
2023-04-16T16:46:25.167Z,13.22
2023-04-16T16:49:12.416Z,13.15
2023-04-16T16:52:00.182Z,12.91
2023-04-16T16:54:47.278Z,12.68
2023-04-16T16:57:35.494Z,12.80
2023-04-16T17:00:24.437Z,12.83
2023-04-16T17:03:14.299Z,12.79
2023-04-16T17:06:01.393Z,12.95
2023-04-16T17:08:48.966Z,12.96
2023-04-16T17:11:35.491Z,12.93
2023-04-16T17:14:22.237Z,12.92
2023-04-16T17:17:08.983Z,12.89
2023-04-16T17:19:57.353Z,12.86
2023-04-16T17:22:44.203Z,12.90
2023-04-16T17:25:31.107Z,12.76
2023-04-16T17:28:17.706Z,12.94
2023-04-16T17:31:04.641Z,13.04
2023-04-16T17:33:52.262Z,12.91
2023-04-16T17:36:40.960Z,12.93
2023-04-16T17:39:27.720Z,12.81
2023-04-16T17:42:14.541Z,12.85
2023-04-16T17:45:03.120Z,12.76
2023-04-16T17:47:49.769Z,12.71
2023-04-16T17:50:39.385Z,12.72
2023-04-16T17:53:27.576Z,12.76
2023-04-16T17:56:14.436Z,12.76
2023-04-16T17:59:01.461Z,12.82
2023-04-16T18:01:53.340Z,12.79
2023-04-16T18:04:42.370Z,12.67
2023-04-16T18:07:29.723Z,12.71
2023-04-16T18:10:18.378Z,12.62
2023-04-16T18:13:05.436Z,12.66
2023-04-16T18:15:53.169Z,12.79
2023-04-16T18:18:39.780Z,12.64
2023-04-16T18:21:27.528Z,12.59
2023-04-16T18:24:15.844Z,12.61
2023-04-16T18:27:04.080Z,12.71
2023-04-16T18:29:51.350Z,12.53
2023-04-16T18:32:46.827Z,12.57
2023-04-16T18:35:43.134Z,12.41
2023-04-16T18:38:31.460Z,12.47
2023-04-16T18:41:18.428Z,12.44
2023-04-16T18:44:06.513Z,12.37
2023-04-16T18:46:53.220Z,12.36
2023-04-16T18:49:39.850Z,12.29
2023-04-16T18:52:27.917Z,12.37
2023-04-16T18:55:14.798Z,12.31
2023-04-16T18:58:01.492Z,12.37
2023-04-16T19:00:54.631Z,12.25
2023-04-16T19:03:42.668Z,12.45
2023-04-16T19:06:35.361Z,12.29
2023-04-16T19:09:23.384Z,12.23
2023-04-16T19:12:10.141Z,12.22
2023-04-16T19:14:56.960Z,12.28
2023-04-16T19:17:45.035Z,12.11
2023-04-16T19:20:35.655Z,12.08
2023-04-16T19:23:22.299Z,11.79
2023-04-16T19:26:08.702Z,12.09
2023-04-16T19:28:55.368Z,12.12
2023-04-16T19:31:42.296Z,12.15
2023-04-16T19:34:31.049Z,12.10
2023-04-16T19:37:17.798Z,12.16
2023-04-16T19:40:06.043Z,11.98
2023-04-16T19:42:55.905Z,12.08
2023-04-16T19:45:44.346Z,11.79
2023-04-16T19:48:31.866Z,11.90
2023-04-16T19:51:19.747Z,11.86
2023-04-16T19:54:06.559Z,11.84
2023-04-16T19:56:53.350Z,11.79
2023-04-16T19:59:40.192Z,11.92
2023-04-16T20:02:27.083Z,11.60
2023-04-16T20:05:13.946Z,11.24
2023-04-16T20:08:02.061Z,11.79
2023-04-16T20:10:48.684Z,11.91
2023-04-16T20:13:37.597Z,11.84
2023-04-16T20:16:24.826Z,11.82
2023-04-16T20:19:11.355Z,11.64
2023-04-16T20:21:58.541Z,11.62
2023-04-16T20:24:48.200Z,11.59
2023-04-16T20:27:35.050Z,11.46
2023-04-16T20:30:22.622Z,11.54
2023-04-16T20:33:10.034Z,11.42
2023-04-16T20:35:56.854Z,11.34
2023-04-16T20:38:43.756Z,11.44
2023-04-16T20:41:31.931Z,11.55
2023-04-16T20:44:18.906Z,11.57
2023-04-16T20:47:06.006Z,11.42
2023-04-16T20:49:53.002Z,11.38
2023-04-16T20:52:39.785Z,11.42
2023-04-16T20:55:26.844Z,11.50
2023-04-16T20:58:14.782Z,11.48
2023-04-16T21:01:02.002Z,11.37
2023-04-16T21:03:48.640Z,11.45
2023-04-16T21:06:38.556Z,11.22
2023-04-16T21:09:25.449Z,11.31
2023-04-16T21:12:12.166Z,11.27
2023-04-16T21:15:00.172Z,11.28
2023-04-16T21:17:51.173Z,11.20
2023-04-16T21:20:40.341Z,10.84
2023-04-16T21:23:27.051Z,11.34
2023-04-16T21:26:18.105Z,11.30
2023-04-16T21:29:11.967Z,11.14
2023-04-16T21:32:01.170Z,11.30
2023-04-16T21:34:48.387Z,11.43
2023-04-16T21:37:36.291Z,11.16
2023-04-16T21:40:23.548Z,11.24
2023-04-16T21:43:10.261Z,11.14
2023-04-16T21:45:57.307Z,11.22
2023-04-16T21:48:45.454Z,11.13
2023-04-16T21:51:31.864Z,11.15
2023-04-16T21:54:20.253Z,11.16
2023-04-16T21:57:06.852Z,11.04
2023-04-16T21:59:53.619Z,11.22
2023-04-16T22:02:41.834Z,11.15
2023-04-16T22:05:31.728Z,11.07
2023-04-16T22:08:24.846Z,11.07
2023-04-16T22:11:11.985Z,10.96
2023-04-16T22:13:58.705Z,11.06
2023-04-16T22:16:46.084Z,10.92
2023-04-16T22:19:34.891Z,11.02
2023-04-16T22:22:23.057Z,11.06
2023-04-16T22:25:10.217Z,11.04
2023-04-16T22:27:56.757Z,11.02
2023-04-16T22:30:43.481Z,10.91
2023-04-16T22:33:30.636Z,11.08
2023-04-16T22:36:17.107Z,10.99
2023-04-16T22:39:08.555Z,10.98
2023-04-16T22:41:56.125Z,11.04
2023-04-16T22:44:42.997Z,10.97
2023-04-16T22:47:29.932Z,10.81
2023-04-16T22:50:16.803Z,10.76
2023-04-16T22:53:03.406Z,10.97
2023-04-16T22:55:51.614Z,10.96
2023-04-16T22:58:38.537Z,10.97
2023-04-16T23:01:25.142Z,10.90
2023-04-16T23:04:12.026Z,10.89
2023-04-16T23:06:58.726Z,10.85
2023-04-16T23:09:45.600Z,10.96
2023-04-16T23:12:33.866Z,10.93
2023-04-16T23:15:20.836Z,10.85
2023-04-16T23:18:07.688Z,10.98
2023-04-16T23:20:54.827Z,10.84
2023-04-16T23:23:41.648Z,10.96
2023-04-16T23:26:28.360Z,10.84
2023-04-16T23:29:16.595Z,10.83
2023-04-16T23:32:03.335Z,10.84
2023-04-16T23:34:50.227Z,10.79
2023-04-16T23:37:37.088Z,10.78
2023-04-16T23:40:23.866Z,10.62
2023-04-16T23:43:10.772Z,10.70
2023-04-16T23:45:58.813Z,10.59
2023-04-16T23:48:45.638Z,10.56
2023-04-16T23:51:32.678Z,10.56
2023-04-16T23:54:19.199Z,10.55
2023-04-16T23:57:06.048Z,10.49
2023-04-16T23:59:52.837Z,10.57
